Time;durP1;ratioP1;P1;durP2;ratioP2;P2;SDS_P1;SDS_P2;PMS_P1;PMS_P2;Temp;Humidity;BMP_temperature;BMP_pressure;BME280_temperature;BME280_humidity;BME280_pressure;Samples;Min_cycle;Max_cycle;Signal;HPM_P1;HPM_P2
2023/12/26 00:02:32;;;;;;;3.52;1.70;;;;;;;13.60;59.15;98813.30;1745456;82;21343;-82
2023/12/26 00:05:39;;;;;;;3.70;1.80;;;;;;;13.20;59.89;98819.79;1745632;82;21272;-81
2023/12/26 00:08:46;;;;;;;3.08;1.62;;;;;;;13.46;59.13;98816.76;1745536;82;21334;-81
2023/12/26 00:11:51;;;;;;;2.00;1.50;;;;;;;13.14;59.28;98823.45;1745323;82;21292;-81
2023/12/26 00:14:57;;;;;;;3.85;1.90;;;;;;;13.07;59.78;98829.55;1745393;81;21244;-82
2023/12/26 00:18:03;;;;;;;3.50;2.00;;;;;;;13.31;59.01;98823.16;1745339;82;21298;-82
2023/12/26 00:21:10;;;;;;;4.80;1.75;;;;;;;13.13;58.73;98828.65;1745371;82;21259;-82
2023/12/26 00:24:15;;;;;;;3.62;2.45;;;;;;;13.29;58.30;98830.80;1745407;82;21303;-82
2023/12/26 00:27:21;;;;;;;4.50;2.95;;;;;;;12.90;59.22;98826.05;1745607;82;21299;-82
2023/12/26 00:30:26;;;;;;;5.72;2.70;;;;;;;13.29;58.28;98830.80;1745648;82;21303;-82
2023/12/26 00:33:32;;;;;;;5.35;2.65;;;;;;;12.97;58.88;98833.66;1745398;82;21260;-81
2023/12/26 00:36:37;;;;;;;4.62;2.87;;;;;;;12.54;59.99;98822.16;1745373;82;21283;-81
2023/12/26 00:39:45;;;;;;;4.55;2.72;;;;;;;12.25;61.18;98811.88;1745296;82;21311;-82
2023/12/26 00:42:51;;;;;;;8.58;3.50;;;;;;;11.97;61.78;98824.10;1744624;82;21883;-82
2023/12/26 00:45:57;;;;;;;6.15;3.60;;;;;;;12.54;60.17;98820.79;1774917;81;21795;-81
2023/12/26 00:49:03;;;;;;;5.62;3.12;;;;;;;12.15;60.82;98832.11;1776141;81;21815;-82
2023/12/26 00:52:09;;;;;;;5.35;3.33;;;;;;;12.42;60.28;98839.06;1776211;81;21275;-82
2023/12/26 00:55:16;;;;;;;9.55;4.58;;;;;;;12.12;61.10;98850.35;1776158;81;21268;-82
2023/12/26 00:58:21;;;;;;;6.10;3.52;;;;;;;11.70;62.32;98844.47;1776333;81;21641;-82
2023/12/26 01:01:27;;;;;;;5.28;3.42;;;;;;;11.93;61.46;98852.17;1776202;81;21653;-82
2023/12/26 01:04:33;;;;;;;5.10;2.75;;;;;;;12.02;61.25;98854.42;1775918;81;21268;-81
2023/12/26 01:07:41;;;;;;;3.33;2.60;;;;;;;11.70;62.03;98849.95;1776153;81;21271;-81
2023/12/26 01:10:47;;;;;;;3.05;2.30;;;;;;;11.70;62.41;98862.27;1776159;81;21284;-82
2023/12/26 01:13:52;;;;;;;3.92;2.60;;;;;;;11.87;61.95;98859.38;1776071;81;21240;-81
2023/12/26 01:16:58;;;;;;;4.45;2.77;;;;;;;12.17;60.80;98867.81;1775867;81;21292;-82
2023/12/26 01:20:05;;;;;;;5.22;2.67;;;;;;;12.46;59.90;98861.37;1776277;81;21826;-82
2023/12/26 01:23:10;;;;;;;4.42;2.40;;;;;;;12.59;59.38;98867.28;1776260;81;21272;-82
2023/12/26 01:26:15;;;;;;;2.85;2.00;;;;;;;12.57;58.85;98867.52;1759692;81;21338;-82
2023/12/26 01:29:22;;;;;;;3.02;2.33;;;;;;;12.40;58.84;98865.84;1776169;81;21267;-82
2023/12/26 01:32:28;;;;;;;4.08;2.10;;;;;;;12.10;59.65;98873.05;1776191;81;21312;-82
2023/12/26 01:35:35;;;;;;;4.37;2.00;;;;;;;12.47;58.27;98869.92;1776094;81;21261;-82
2023/12/26 01:38:41;;;;;;;4.17;2.40;;;;;;;12.34;58.04;98868.13;1776029;81;21260;-82
2023/12/26 01:41:47;;;;;;;4.45;2.02;;;;;;;12.22;58.24;98874.00;1776033;81;21359;-82
2023/12/26 01:44:51;;;;;;;3.98;2.10;;;;;;;12.54;57.04;98878.39;1760528;81;21240;-82
2023/12/26 01:48:01;;;;;;;3.92;2.10;;;;;;;12.58;56.43;98891.66;1745393;82;21304;-82
2023/12/26 01:51:07;;;;;;;4.53;1.85;;;;;;;12.76;55.78;98893.93;1745848;82;21248;-82
2023/12/26 01:54:13;;;;;;;4.25;1.98;;;;;;;12.58;55.99;98900.73;1745635;82;21839;-82
2023/12/26 01:57:19;;;;;;;4.47;2.12;;;;;;;12.44;56.21;98904.11;1745652;82;21280;-82
2023/12/26 02:00:24;;;;;;;4.50;2.30;;;;;;;12.19;56.95;98909.56;1745478;82;21315;-81
2023/12/26 02:03:33;;;;;;;6.08;2.00;;;;;;;12.29;57.06;98911.81;1745435;81;21736;-82
2023/12/26 02:06:39;;;;;;;5.08;2.00;;;;;;;12.57;56.28;98911.94;1745520;82;21268;-82
2023/12/26 02:09:45;;;;;;;3.37;1.67;;;;;;;11.24;59.51;98918.91;1745377;82;21272;-82
2023/12/26 02:12:55;;;;;;;2.53;1.43;;;;;;;11.05;60.95;98932.08;1746070;81;21835;-81
2023/12/26 02:16:00;;;;;;;5.65;2.30;;;;;;;10.70;63.06;98928.76;1761013;81;21807;-82
2023/12/26 02:19:06;;;;;;;2.60;1.55;;;;;;;11.97;59.44;98930.13;1760815;81;21292;-82
2023/12/26 02:22:11;;;;;;;4.25;2.20;;;;;;;12.18;58.23;98930.32;1761108;81;21256;-81
2023/12/26 02:25:18;;;;;;;7.58;1.87;;;;;;;12.37;57.66;98933.99;1761204;81;22325;-82
2023/12/26 02:28:23;;;;;;;6.22;2.00;;;;;;;12.41;57.15;98929.22;1757734;81;21271;-82
2023/12/26 02:31:30;;;;;;;5.22;1.90;;;;;;;12.46;57.18;98932.66;1745420;82;21279;-82
2023/12/26 02:34:35;;;;;;;4.35;1.80;;;;;;;13.00;55.93;98948.48;1745404;82;21343;-81
2023/12/26 02:37:41;;;;;;;8.63;2.42;;;;;;;12.90;55.59;98943.20;1745497;82;21252;-82
2023/12/26 02:40:53;;;;;;;6.42;2.25;;;;;;;12.95;55.38;98940.09;1745247;82;21328;-82
2023/12/26 02:43:56;;;;;;;3.98;1.65;;;;;;;12.92;55.32;98943.81;1746162;81;21300;-82
2023/12/26 02:47:01;;;;;;;3.67;1.82;;;;;;;12.81;55.58;98946.76;1768912;81;21788;-82
2023/12/26 02:50:08;;;;;;;8.53;1.82;;;;;;;12.87;55.55;98946.39;1768795;81;21927;-82
2023/12/26 02:53:13;;;;;;;4.70;1.70;;;;;;;12.93;55.41;98959.20;1768954;81;21752;-82
2023/12/26 02:56:19;;;;;;;3.47;1.57;;;;;;;12.79;55.71;98967.54;1768906;81;21672;-81
2023/12/26 02:59:24;;;;;;;5.72;2.08;;;;;;;12.59;56.34;98972.87;1768734;81;22224;-82
2023/12/26 03:02:31;;;;;;;5.87;1.90;;;;;;;12.87;55.75;98980.16;1769182;81;21319;-82
2023/12/26 03:05:37;;;;;;;4.17;1.72;;;;;;;12.91;55.57;98984.14;1769160;81;21882;-82
2023/12/26 03:08:44;;;;;;;4.87;1.80;;;;;;;12.87;55.87;98981.53;1769341;81;21795;-82
2023/12/26 03:11:51;;;;;;;3.25;1.75;;;;;;;12.74;56.23;98986.58;1769212;81;21240;-82
2023/12/26 03:14:58;;;;;;;4.50;1.67;;;;;;;12.82;56.44;98990.96;1769476;81;21246;-82
2023/12/26 03:18:04;;;;;;;2.22;1.80;;;;;;;12.61;57.20;99000.91;1769666;81;21276;-83
2023/12/26 03:21:10;;;;;;;3.77;1.37;;;;;;;12.86;56.76;99006.46;1769689;81;21320;-82
2023/12/26 03:24:09;;;;;;;2.37;1.50;;;;;;;12.57;57.64;99024.39;1769308;81;21276;-82
2023/12/26 03:27:15;;;;;;;2.20;1.32;;;;;;;12.50;58.08;99029.89;1769319;81;21280;-82
2023/12/26 03:30:20;;;;;;;4.17;2.15;;;;;;;12.48;58.40;99034.24;1739609;82;21272;-82
2023/12/26 03:33:27;;;;;;;5.33;2.00;;;;;;;12.73;57.77;99037.03;1704130;84;21279;-82
2023/12/26 03:36:34;;;;;;;3.05;2.00;;;;;;;12.62;57.75;99047.88;1740008;82;21264;-82
2023/12/26 03:39:41;;;;;;;4.25;2.17;;;;;;;12.87;57.23;99044.64;1740162;82;21260;-82
2023/12/26 03:42:46;;;;;;;3.12;1.60;;;;;;;13.02;56.79;99052.02;1739960;82;21300;-82
2023/12/26 03:45:52;;;;;;;2.95;2.30;;;;;;;12.89;56.80;99049.39;1776283;80;21901;-82
2023/12/26 03:48:59;;;;;;;4.28;2.95;;;;;;;12.95;56.71;99059.48;1784247;80;21284;-82
2023/12/26 03:52:03;;;;;;;5.25;2.42;;;;;;;12.85;56.74;99053.64;1784099;80;21795;-82
2023/12/26 03:55:10;;;;;;;3.15;1.70;;;;;;;12.71;56.99;99064.39;1783880;80;21295;-82
2023/12/26 03:58:16;;;;;;;3.77;1.80;;;;;;;12.24;58.32;99063.79;1784145;80;21272;-82
2023/12/26 04:01:22;;;;;;;6.50;2.12;;;;;;;12.23;58.16;99060.71;1784142;80;21327;-82
2023/12/26 04:04:28;;;;;;;5.08;1.60;;;;;;;12.25;58.03;99058.08;1784010;80;21256;-82
2023/12/26 04:07:35;;;;;;;3.45;2.33;;;;;;;12.13;58.37;99054.86;1784335;80;21252;-82
2023/12/26 04:10:40;;;;;;;2.65;1.60;;;;;;;12.01;58.54;99065.13;1784332;80;21252;-81
2023/12/26 04:13:46;;;;;;;2.47;1.60;;;;;;;11.91;58.72;99070.23;1784218;80;21688;-82
2023/12/26 04:16:51;;;;;;;4.62;3.08;;;;;;;11.91;58.64;99075.70;1784179;80;21871;-82
2023/12/26 04:19:57;;;;;;;3.55;2.52;;;;;;;11.93;58.56;99078.22;1784133;80;21390;-82
2023/12/26 04:23:03;;;;;;;7.22;2.20;;;;;;;12.01;57.95;99084.31;1784109;80;21871;-82
2023/12/26 04:26:09;;;;;;;4.40;2.27;;;;;;;11.77;58.54;99080.88;1783857;80;22288;-82
2023/12/26 04:29:14;;;;;;;4.25;1.72;;;;;;;11.95;57.95;99094.77;1775508;80;21244;-82
2023/12/26 04:32:19;;;;;;;4.78;1.90;;;;;;;11.95;57.71;99104.37;1768995;81;21244;-82
2023/12/26 04:35:26;;;;;;;2.67;1.82;;;;;;;11.83;57.90;99099.75;1768782;81;21303;-82
2023/12/26 04:38:32;;;;;;;5.62;2.40;;;;;;;11.93;57.48;99106.46;1769163;81;21272;-82
2023/12/26 04:41:39;;;;;;;4.80;2.33;;;;;;;11.93;57.36;99110.57;1768852;81;21267;-81
2023/12/26 04:44:46;;;;;;;6.22;2.02;;;;;;;12.01;56.90;99114.46;1770819;80;21228;-82
2023/12/26 04:47:51;;;;;;;5.37;2.58;;;;;;;12.06;56.71;99117.93;1770414;81;21288;-82
2023/12/26 04:50:57;;;;;;;4.67;2.22;;;;;;;12.20;56.32;99124.22;1770344;81;21851;-82
2023/12/26 04:54:04;;;;;;;7.85;2.90;;;;;;;12.30;55.74;99125.13;1770317;81;21803;-82
2023/12/26 04:57:10;;;;;;;14.53;3.85;;;;;;;12.27;55.49;99127.23;1770244;81;21819;-82
2023/12/26 05:00:19;;;;;;;5.97;2.55;;;;;;;12.27;55.36;99125.02;1770579;81;21240;-82
2023/12/26 05:03:25;;;;;;;5.12;2.40;;;;;;;12.07;55.98;99135.21;1770625;81;21847;-82
2023/12/26 05:06:31;;;;;;;3.40;2.47;;;;;;;12.18;55.74;99124.95;1770449;81;21870;-82
2023/12/26 05:09:38;;;;;;;2.70;1.87;;;;;;;12.44;54.76;99136.36;1770655;81;21283;-82
2023/12/26 05:12:46;;;;;;;4.83;2.85;;;;;;;12.07;55.46;99140.69;1770733;81;21177;-82
2023/12/26 05:15:52;;;;;;;3.95;2.65;;;;;;;12.06;55.82;99143.97;1770546;81;21315;-82
2023/12/26 05:18:57;;;;;;;4.62;2.58;;;;;;;12.08;56.03;99156.08;1770265;81;21264;-81
2023/12/26 05:22:03;;;;;;;17.17;2.40;;;;;;;11.89;56.67;99161.38;1770213;81;21312;-82
2023/12/26 05:25:10;;;;;;;3.70;2.12;;;;;;;11.99;56.71;99165.05;1770257;81;21252;-82
2023/12/26 05:28:17;;;;;;;3.75;2.00;;;;;;;11.88;57.12;99173.39;1768486;81;21271;-82
2023/12/26 05:31:28;;;;;;;2.92;1.95;;;;;;;11.83;57.35;99181.41;1760041;81;21256;-82
2023/12/26 05:34:35;;;;;;;7.17;2.80;;;;;;;11.90;57.14;99180.02;1760203;81;21276;-82
2023/12/26 05:37:40;;;;;;;6.65;2.92;;;;;;;12.23;56.24;99192.30;1760108;81;21299;-82
2023/12/26 05:40:46;;;;;;;3.65;2.10;;;;;;;12.16;56.13;99202.45;1760571;81;21836;-82
2023/12/26 05:43:52;;;;;;;6.75;2.12;;;;;;;12.13;56.49;99200.97;1752223;81;21327;-82
2023/12/26 05:46:58;;;;;;;4.15;2.25;;;;;;;12.12;56.37;99202.03;1770413;81;21343;-81
2023/12/26 05:50:04;;;;;;;4.72;2.35;;;;;;;12.24;56.06;99211.83;1769711;81;22397;-82
2023/12/26 05:53:11;;;;;;;4.17;2.20;;;;;;;11.93;56.85;99212.48;1770043;81;21323;-82
2023/12/26 05:56:17;;;;;;;3.92;2.12;;;;;;;12.10;56.36;99212.38;1769913;81;21260;-82
2023/12/26 05:59:22;;;;;;;3.55;2.00;;;;;;;12.22;55.85;99227.64;1750102;81;21323;-82
2023/12/26 06:02:29;;;;;;;7.15;2.60;;;;;;;12.21;55.68;99246.52;1738379;82;21334;-82
2023/12/26 06:05:37;;;;;;;4.90;2.00;;;;;;;12.50;54.71;99224.09;1727693;81;21289;-82
2023/12/26 06:08:43;;;;;;;6.17;2.30;;;;;;;12.65;53.90;99255.91;1767268;80;21347;-82
2023/12/26 06:11:50;;;;;;;5.08;2.10;;;;;;;12.63;53.71;99253.39;1769016;81;21344;-82
2023/12/26 06:14:56;;;;;;;5.78;2.33;;;;;;;12.42;54.06;99264.11;1742181;81;21808;-81
2023/12/26 06:18:02;;;;;;;5.90;2.00;;;;;;;12.42;54.11;99255.02;1736267;81;21283;-82
2023/12/26 06:21:08;;;;;;;5.33;2.17;;;;;;;12.25;54.68;99261.48;1755111;80;21317;-82
2023/12/26 06:24:16;;;;;;;7.10;2.67;;;;;;;12.42;54.20;99265.48;1739273;80;21296;-81
2023/12/26 06:27:22;;;;;;;6.92;2.27;;;;;;;12.24;54.45;99268.03;1759495;80;21899;-82
2023/12/26 06:30:27;;;;;;;8.28;2.65;;;;;;;12.17;54.93;99285.84;1764777;81;21300;-81
2023/12/26 06:33:35;;;;;;;6.53;2.20;;;;;;;12.37;54.42;99287.19;1766253;81;21339;-82
2023/12/26 06:36:41;;;;;;;7.42;2.67;;;;;;;12.44;54.01;99299.01;1742911;81;21307;-82
2023/12/26 06:39:48;;;;;;;3.67;1.98;;;;;;;12.42;54.14;99307.98;1745036;80;22554;-82
2023/12/26 06:42:54;;;;;;;8.30;2.72;;;;;;;12.45;54.29;99313.56;1756324;81;21322;-83
2023/12/26 06:45:59;;;;;;;4.37;2.47;;;;;;;12.64;53.77;99322.28;1742735;81;21257;-84
2023/12/26 06:49:06;;;;;;;10.15;3.37;;;;;;;12.68;53.68;99320.80;1762192;80;21274;-83
2023/12/26 06:52:17;;;;;;;5.60;2.65;;;;;;;12.86;53.30;99331.12;1751853;81;21333;-83
2023/12/26 06:55:21;;;;;;;4.47;2.35;;;;;;;12.90;53.12;99326.89;1763646;81;21889;-83
2023/12/26 06:58:27;;;;;;;5.33;2.00;;;;;;;12.45;54.32;99337.72;1743564;81;21295;-83
2023/12/26 07:01:33;;;;;;;7.42;2.05;;;;;;;13.03;53.07;99340.58;1750193;81;22194;-83
2023/12/26 07:04:39;;;;;;;3.15;1.98;;;;;;;12.57;54.19;99346.16;1760481;80;21876;-84
2023/12/26 07:07:45;;;;;;;4.87;2.40;;;;;;;12.82;53.76;99358.67;1764377;80;21829;-83
2023/12/26 07:10:52;;;;;;;6.55;2.25;;;;;;;13.38;52.74;99359.48;1750495;81;21291;-83
2023/12/26 07:13:58;;;;;;;6.90;2.10;;;;;;;13.10;52.70;99364.41;1751975;80;21299;-83
2023/12/26 07:17:04;;;;;;;6.37;2.35;;;;;;;13.10;52.78;99374.03;1725829;82;21371;-83
2023/12/26 07:20:10;;;;;;;6.08;2.20;;;;;;;13.30;52.24;99379.79;1745568;81;21281;-83
2023/12/26 07:23:17;;;;;;;6.15;2.00;;;;;;;13.13;52.73;99387.34;1753767;80;21398;-82
2023/12/26 07:26:23;;;;;;;15.95;2.70;;;;;;;13.16;52.70;99391.00;1732006;81;21334;-82
2023/12/26 07:29:30;;;;;;;12.75;2.95;;;;;;;13.36;52.26;99393.20;1740211;81;21303;-82
2023/12/26 07:32:35;;;;;;;24.47;2.98;;;;;;;13.66;51.24;99393.50;1760110;79;21575;-83
2023/12/26 07:35:45;;;;;;;25.90;2.77;;;;;;;13.71;51.22;99410.17;1747839;81;21928;-83
2023/12/26 07:38:50;;;;;;;21.48;3.35;;;;;;;13.66;51.42;99412.73;1749111;80;22019;-83
2023/12/26 07:41:55;;;;;;;15.98;3.58;;;;;;;13.53;51.50;99408.13;1750228;81;21291;-83
2023/12/26 07:45:04;;;;;;;22.87;2.65;;;;;;;13.59;51.53;99420.67;1716758;81;21333;-83
2023/12/26 07:48:11;;;;;;;13.15;2.20;;;;;;;13.62;51.73;99430.71;1744281;80;21316;-84
2023/12/26 07:51:20;;;;;;;11.53;3.37;;;;;;;13.95;50.96;99431.94;1769559;79;21322;-83
2023/12/26 07:54:25;;;;;;;18.87;2.95;;;;;;;13.70;51.46;99449.71;1769110;79;21322;-83
2023/12/26 07:57:31;;;;;;;23.50;2.80;;;;;;;13.53;51.93;99456.20;1733720;81;21896;-83
2023/12/26 08:00:37;;;;;;;5.03;2.15;;;;;;;13.62;51.75;99460.94;1709316;83;21297;-83
2023/12/26 08:03:43;;;;;;;17.10;2.40;;;;;;;13.75;51.28;99458.14;1737222;81;21270;-83
2023/12/26 08:06:50;;;;;;;38.70;3.77;;;;;;;13.73;51.32;99469.03;1737843;82;21302;-84
2023/12/26 08:09:56;;;;;;;41.63;5.45;;;;;;;13.81;51.50;99467.42;1720424;82;21327;-84
2023/12/26 08:13:03;;;;;;;14.50;2.98;;;;;;;13.86;51.62;99467.61;1715306;83;21328;-84
2023/12/26 08:16:10;;;;;;;25.23;3.12;;;;;;;14.04;51.59;99460.86;1725447;82;21891;-84
2023/12/26 08:19:18;;;;;;;6.20;2.35;;;;;;;14.17;51.61;99465.45;1725612;82;21305;-84
2023/12/26 08:22:26;;;;;;;21.73;3.62;;;;;;;14.13;51.85;99460.61;1727541;81;21292;-84
2023/12/26 08:25:32;;;;;;;34.95;3.20;;;;;;;13.95;52.34;99459.96;1719758;82;21353;-83
2023/12/26 08:28:38;;;;;;;43.78;4.22;;;;;;;14.01;52.58;99463.20;1728211;82;21909;-84
2023/12/26 08:31:44;;;;;;;25.62;3.83;;;;;;;14.13;52.51;99457.86;1713634;82;21330;-83
2023/12/26 08:34:50;;;;;;;16.30;2.42;;;;;;;14.12;52.54;99461.69;1719967;82;21807;-83
2023/12/26 08:37:58;;;;;;;4.45;1.90;;;;;;;14.34;51.58;99468.52;1716725;82;21874;-83
2023/12/26 08:41:05;;;;;;;16.77;3.33;;;;;;;14.10;51.62;99464.63;1692182;83;21302;-83
2023/12/26 08:44:16;;;;;;;12.15;2.67;;;;;;;14.10;51.91;99470.13;1707410;82;21282;-83
2023/12/26 08:47:21;;;;;;;24.67;3.22;;;;;;;13.83;52.41;99469.94;1740090;82;21797;-83
2023/12/26 08:50:28;;;;;;;45.33;4.28;;;;;;;14.17;51.85;99474.23;1731640;80;21773;-83
2023/12/26 08:53:33;;;;;;;45.40;3.80;;;;;;;14.23;51.91;99478.31;1717443;82;21352;-83
2023/12/26 08:56:43;;;;;;;20.57;2.55;;;;;;;14.21;51.79;99483.20;1733667;82;21279;-83
2023/12/26 08:59:50;;;;;;;15.00;3.27;;;;;;;14.38;51.62;99479.39;1729890;82;21288;-83
2023/12/26 09:26:07;;;;;;;5.42;2.10;;;;;;;10.34;62.40;99482.12;1784000;79;28402;-85
2023/12/26 09:29:14;;;;;;;;;;;;;;;10.72;61.72;99498.25;1762054;80;21286;-86
2023/12/26 09:32:14;;;;;;;3.58;1.75;;;;;;;10.82;57.94;99498.78;1786964;79;20298;-86
2023/12/26 09:35:08;;;;;;;3.72;1.40;;;;;;;11.57;55.04;99499.91;1784391;79;21862;-86
2023/12/26 09:37:55;;;;;;;3.77;1.80;;;;;;;9.73;60.94;99515.22;1778288;80;21270;-86
2023/12/26 09:40:49;;;;;;;5.12;1.60;;;;;;;10.25;60.22;99520.19;1762273;80;21278;-87
2023/12/26 09:43:36;;;;;;;4.42;1.72;;;;;;;11.14;57.08;99506.91;1779028;79;21289;-87
2023/12/26 09:46:29;;;;;;;3.95;1.40;;;;;;;11.12;56.28;99504.06;1772263;80;21856;-87
2023/12/26 09:49:35;;;;;;;4.22;1.92;;;;;;;11.88;54.72;99496.73;1768324;80;21309;-87
2023/12/26 09:52:41;;;;;;;4.62;1.98;;;;;;;12.26;52.96;99501.17;1777735;80;21923;-86
2023/12/26 09:55:48;;;;;;;9.65;2.08;;;;;;;12.36;52.36;99498.56;1781692;80;21331;-86
2023/12/26 09:58:56;;;;;;;5.00;1.75;;;;;;;11.29;54.48;99484.05;1765899;80;21947;-87
2023/12/26 10:02:01;;;;;;;10.08;1.98;;;;;;;11.07;54.99;99473.19;1772157;80;21331;-87
2023/12/26 10:05:08;;;;;;;7.12;2.22;;;;;;;11.10;56.19;99478.77;1766988;80;21315;-86
2023/12/26 10:08:14;;;;;;;6.15;1.80;;;;;;;10.90;57.01;99497.25;1764610;80;21291;-86
2023/12/26 10:11:21;;;;;;;5.97;1.98;;;;;;;11.26;55.77;99492.16;1785904;80;21314;-87
2023/12/26 10:14:38;;;;;;;6.25;1.80;;;;;;;10.99;55.91;99493.84;1769536;80;21305;-86
2023/12/26 10:17:45;;;;;;;4.35;1.65;;;;;;;10.33;58.39;99509.14;1738942;81;21306;-86
2023/12/26 10:20:51;;;;;;;3.42;1.55;;;;;;;11.37;55.62;99509.38;1728513;81;21298;-86
2023/12/26 10:23:58;;;;;;;7.75;1.67;;;;;;;11.34;54.79;99517.14;1737874;81;21349;-86
2023/12/26 10:27:04;;;;;;;4.58;2.00;;;;;;;10.98;55.15;99513.53;1737486;82;21294;-87
2023/12/26 10:30:10;;;;;;;8.73;2.30;;;;;;;10.54;57.56;99513.78;1734929;81;21341;-87
2023/12/26 10:33:16;;;;;;;3.62;1.90;;;;;;;11.59;54.98;99516.16;1738977;81;22311;-87
2023/12/26 10:36:22;;;;;;;5.58;1.77;;;;;;;10.39;59.01;99496.57;1729786;81;21270;-87
2023/12/26 10:39:26;;;;;;;6.85;1.98;;;;;;;10.19;59.31;99511.37;1733773;81;21318;-86
2023/12/26 10:42:33;;;;;;;5.55;1.82;;;;;;;9.30;62.60;99534.67;1737776;81;21306;-87
2023/12/26 10:45:38;;;;;;;3.72;1.98;;;;;;;10.33;61.00;99541.94;1738593;81;21309;-87
2023/12/26 10:48:44;;;;;;;4.90;2.02;;;;;;;10.08;60.87;99543.30;1737645;81;21314;-87
2023/12/26 10:51:51;;;;;;;5.08;2.08;;;;;;;10.25;60.80;99552.98;1741342;81;21338;-87
2023/12/26 10:55:00;;;;;;;4.87;2.12;;;;;;;10.64;59.70;99556.69;1735734;80;21334;-88
2023/12/26 10:58:33;;;;;;;6.12;1.85;;;;;;;10.69;59.92;99560.20;1731572;82;21314;-90
2023/12/26 13:52:36;;;;;;;7.28;1.98;;;;;;;13.43;49.68;99683.82;1740709;81;21341;-85
2023/12/26 13:56:35;;;;;;;4.28;2.17;;;;;;;12.58;51.26;99688.00;1742962;81;21284;-84
2023/12/26 14:00:38;;;;;;;10.35;3.60;;;;;;;12.23;52.36;99685.80;1740279;81;21606;-85
2023/12/26 14:04:40;;;;;;;9.98;3.20;;;;;;;12.27;52.32;99693.95;1728276;81;21299;-85
2023/12/26 14:08:41;;;;;;;8.38;3.00;;;;;;;12.21;52.29;99689.28;1727752;81;21207;-86
2023/12/26 14:12:41;;;;;;;11.60;3.17;;;;;;;11.99;52.69;99687.13;1734337;81;21353;-86
2023/12/26 14:16:41;;;;;;;6.78;2.95;;;;;;;11.91;53.11;99689.53;1740897;81;21884;-86
2023/12/26 14:20:42;;;;;;;12.15;3.30;;;;;;;11.91;53.33;99698.28;1760409;81;21283;-86
2023/12/26 14:24:42;;;;;;;6.92;3.10;;;;;;;11.68;53.85;99700.70;1730089;83;21331;-86
2023/12/26 14:28:42;;;;;;;7.12;3.20;;;;;;;11.92;53.31;99696.70;1731134;81;22144;-86
2023/12/26 14:32:42;;;;;;;8.23;4.03;;;;;;;11.78;54.00;99692.13;1732274;82;21362;-86
2023/12/26 14:36:45;;;;;;;10.45;5.03;;;;;;;11.78;54.00;99692.13;1731979;82;21310;-86
2023/12/26 14:40:46;;;;;;;11.90;6.12;;;;;;;11.94;53.46;99704.70;1732707;82;21342;-86
2023/12/26 14:44:27;;;;;;;;;;;;;;;12.20;53.04;99695.30;1738929;81;21650;-87
2023/12/26 14:56:42;;;;;;;12.82;6.35;;;;;;;11.71;54.51;99702.17;1747025;82;21169;-86
2023/12/26 15:00:43;;;;;;;16.95;8.15;;;;;;;11.97;54.40;99713.91;1720271;83;21356;-86
2023/12/26 15:03:49;;;;;;;24.92;11.55;;;;;;;11.68;55.11;99709.44;1752799;82;21321;-86
2023/12/26 15:06:55;;;;;;;33.45;13.38;;;;;;;11.18;57.53;99712.13;1731640;82;21332;-86
2023/12/26 15:10:02;;;;;;;37.08;17.20;;;;;;;11.40;57.14;99706.14;1732269;83;21900;-86
2023/12/26 15:13:07;;;;;;;79.82;38.55;;;;;;;11.61;57.06;99694.83;1730807;83;21323;-86
2023/12/26 15:20:43;;;;;;;29.67;14.20;;;;;;;11.46;57.76;99690.28;1716677;83;21813;-86
2023/12/26 15:23:51;;;;;;;29.02;15.18;;;;;;;11.36;58.35;99687.56;1721761;83;21362;-86
2023/12/26 15:26:57;;;;;;;29.72;15.78;;;;;;;11.19;59.40;99682.86;1704888;84;21306;-86
2023/12/26 15:30:03;;;;;;;26.40;13.95;;;;;;;11.57;59.06;99679.83;1746130;81;21351;-86
2023/12/26 15:33:10;;;;;;;14.90;7.92;;;;;;;11.36;59.31;99681.56;1744923;82;21899;-86
2023/12/26 15:36:25;;;;;;;12.88;5.35;;;;;;;11.43;58.51;99676.13;1751233;80;21327;-86
2023/12/26 15:39:31;;;;;;;9.15;4.83;;;;;;;11.91;57.62;99674.45;1774435;80;21315;-86
2023/12/26 15:42:38;;;;;;;11.80;5.25;;;;;;;11.89;57.25;99672.95;1775722;80;21330;-86
2023/12/26 15:45:47;;;;;;;9.90;4.70;;;;;;;11.75;57.20;99664.59;1775711;80;21311;-85
2023/12/26 15:48:54;;;;;;;8.90;4.37;;;;;;;11.76;57.40;99662.70;1761997;80;22004;-86
2023/12/26 15:51:59;;;;;;;9.40;4.72;;;;;;;11.91;57.21;99663.49;1748813;80;21887;-86
2023/12/26 15:55:06;;;;;;;9.98;4.10;;;;;;;12.11;56.83;99657.28;1746135;82;21338;-86
2023/12/26 15:58:12;;;;;;;12.03;5.65;;;;;;;11.85;57.74;99653.31;1731444;81;21940;-86
2023/12/26 16:01:20;;;;;;;16.87;6.22;;;;;;;12.09;56.99;99649.27;1732458;83;21921;-86
2023/12/26 16:04:27;;;;;;;18.42;7.03;;;;;;;12.43;56.03;99662.62;1732403;83;21342;-86
2023/12/26 16:07:34;;;;;;;15.15;6.12;;;;;;;11.89;58.01;99656.51;1732384;83;21353;-86
2023/12/26 16:10:40;;;;;;;19.82;8.25;;;;;;;12.32;57.65;99654.42;1731699;83;21602;-86
2023/12/26 16:13:47;;;;;;;16.75;7.58;;;;;;;11.94;58.48;99649.89;1732453;81;21335;-86
2023/12/26 16:16:52;;;;;;;13.78;5.97;;;;;;;11.73;59.63;99653.53;1731487;83;21352;-86
2023/12/26 16:19:57;;;;;;;6.70;4.20;;;;;;;12.11;58.84;99653.17;1732380;83;21882;-86
2023/12/26 16:23:04;;;;;;;9.08;4.65;;;;;;;12.02;58.67;99649.74;1732262;81;21303;-86
2023/12/26 16:26:14;;;;;;;11.05;5.17;;;;;;;11.59;59.88;99651.73;1731165;83;21347;-86
2023/12/26 16:29:20;;;;;;;11.45;5.20;;;;;;;11.83;59.27;99642.25;1733406;81;21861;-86
2023/12/26 16:32:26;;;;;;;11.33;6.17;;;;;;;11.79;60.09;99652.72;1703367;84;21314;-86
2023/12/26 16:35:33;;;;;;;14.83;8.28;;;;;;;11.74;60.63;99649.21;1704595;84;21350;-86
2023/12/26 16:38:42;;;;;;;14.75;8.50;;;;;;;11.73;60.72;99642.57;1703323;84;21362;-86
2023/12/26 16:41:51;;;;;;;15.30;8.00;;;;;;;12.01;60.36;99644.79;1728205;83;21357;-85
2023/12/26 16:44:59;;;;;;;14.83;8.45;;;;;;;11.61;61.53;99644.16;1694655;83;21307;-86
2023/12/26 16:48:07;;;;;;;15.13;8.48;;;;;;;11.98;60.68;99651.19;1738395;82;21315;-86
2023/12/26 16:51:14;;;;;;;16.75;8.55;;;;;;;11.89;60.63;99642.27;1758103;81;21334;-87
2023/12/26 16:54:20;;;;;;;14.70;7.50;;;;;;;12.36;59.81;99637.89;1728719;81;21356;-87
2023/12/26 16:57:28;;;;;;;14.63;7.53;;;;;;;11.91;60.90;99642.09;1727921;83;22624;-87
2023/12/26 17:00:36;;;;;;;15.35;8.58;;;;;;;11.76;61.33;99636.67;1729194;82;21877;-87
2023/12/26 17:03:48;;;;;;;13.10;7.50;;;;;;;12.02;61.25;99625.08;1748676;81;21290;-86
2023/12/26 17:06:54;;;;;;;14.43;8.68;;;;;;;11.85;61.54;99614.95;1757169;81;21319;-86
2023/12/26 17:10:00;;;;;;;17.27;9.98;;;;;;;12.17;60.65;99612.60;1748955;81;21314;-87
2023/12/26 17:13:08;;;;;;;17.15;9.55;;;;;;;12.32;60.64;99611.92;1704244;84;21349;-85
2023/12/26 17:16:24;;;;;;;14.85;9.20;;;;;;;12.74;59.75;99622.30;1726028;83;21350;-85
2023/12/26 17:19:34;;;;;;;12.68;8.05;;;;;;;12.56;59.98;99616.55;1705114;83;22757;-85
2023/12/26 17:22:41;;;;;;;23.12;9.15;;;;;;;13.01;58.61;99609.48;1704090;84;21318;-84
2023/12/26 17:25:55;;;;;;;16.48;9.33;;;;;;;12.98;59.12;99614.86;1675224;85;22430;-87
2023/12/26 17:29:00;;;;;;;17.07;9.63;;;;;;;13.09;58.91;99609.30;1703042;84;22540;-87
2023/12/26 17:32:07;;;;;;;17.98;8.28;;;;;;;11.94;62.62;99606.89;1684114;83;21338;-87
2023/12/26 17:35:16;;;;;;;19.32;9.35;;;;;;;12.32;62.32;99603.70;1697631;84;21317;-87
2023/12/26 17:38:22;;;;;;;18.48;8.33;;;;;;;12.68;61.21;99592.43;1706605;83;21363;-87
2023/12/26 17:41:31;;;;;;;13.68;8.33;;;;;;;12.60;61.83;99582.17;1697273;84;21370;-87
2023/12/26 17:44:40;;;;;;;13.90;8.48;;;;;;;12.48;62.23;99577.83;1699867;83;21343;-87
2023/12/26 17:47:57;;;;;;;16.37;8.50;;;;;;;12.53;62.19;99562.96;1707625;82;21923;-87
2023/12/26 17:51:04;;;;;;;14.78;8.65;;;;;;;12.25;63.62;99561.71;1722245;83;21882;-87
2023/12/26 17:54:13;;;;;;;13.83;8.28;;;;;;;12.18;63.96;99559.45;1739716;82;21308;-87
2023/12/26 17:57:20;;;;;;;17.62;8.98;;;;;;;12.32;63.77;99546.11;1721396;83;21358;-87
2023/12/26 18:00:29;;;;;;;15.80;8.33;;;;;;;12.47;63.30;99538.58;1720684;83;21352;-86
2023/12/26 18:03:37;;;;;;;13.28;7.83;;;;;;;12.40;63.57;99540.98;1722504;83;21842;-86
2023/12/26 18:06:45;;;;;;;16.90;8.50;;;;;;;12.60;63.25;99539.64;1722138;83;21332;-85
2023/12/26 18:09:52;;;;;;;21.80;8.48;;;;;;;12.63;63.18;99531.85;1731092;82;21982;-85
2023/12/26 18:12:59;;;;;;;17.05;8.80;;;;;;;12.52;63.65;99529.20;1721184;83;21387;-86
2023/12/26 18:16:08;;;;;;;15.60;8.48;;;;;;;12.88;62.55;99520.27;1721528;83;21363;-85